createdAt,value
2022-08-01T00:01:45.368Z,76.10
2022-08-01T00:04:11.841Z,76.10
2022-08-01T00:06:38.296Z,76.10
2022-08-01T00:09:04.792Z,76.10
2022-08-01T00:11:31.262Z,76.00
2022-08-01T00:13:57.725Z,76.00
2022-08-01T00:16:24.196Z,76.10
2022-08-01T00:18:50.672Z,76.10
2022-08-01T00:21:17.134Z,76.10
2022-08-01T00:23:43.622Z,76.10
2022-08-01T00:26:10.093Z,76.30
2022-08-01T00:28:36.573Z,76.40
2022-08-01T00:31:03.034Z,76.40
2022-08-01T00:33:29.508Z,76.50
2022-08-01T00:35:55.973Z,76.60
2022-08-01T00:38:22.452Z,76.60
2022-08-01T00:40:48.910Z,76.50
2022-08-01T00:43:15.405Z,76.50
2022-08-01T00:45:41.874Z,76.80
2022-08-01T00:48:08.349Z,76.90
2022-08-01T00:50:34.812Z,76.90
2022-08-01T00:53:01.281Z,76.90
2022-08-01T00:55:27.747Z,76.80
2022-08-01T00:58:03.853Z,76.80
2022-08-01T01:00:32.369Z,76.80
2022-08-01T01:03:01.248Z,76.70
2022-08-01T01:05:27.710Z,76.70
2022-08-01T01:07:54.180Z,76.70
2022-08-01T01:10:20.652Z,76.60
2022-08-01T01:12:50.184Z,76.50
2022-08-01T01:15:16.870Z,76.50
2022-08-01T01:17:50.350Z,77.10
2022-08-01T01:20:18.276Z,76.50
2022-08-01T01:22:44.750Z,76.50
2022-08-01T01:25:11.230Z,76.40
2022-08-01T01:27:37.682Z,76.40
2022-08-01T01:30:04.163Z,76.40
2022-08-01T01:32:31.234Z,76.50
2022-08-01T01:34:57.766Z,76.40
2022-08-01T01:37:24.237Z,76.40
2022-08-01T01:39:54.329Z,77.10
2022-08-01T01:42:20.997Z,76.50
2022-08-01T01:44:47.471Z,76.40
2022-08-01T01:47:13.926Z,76.70
2022-08-01T01:49:40.400Z,76.60
2022-08-01T01:52:07.114Z,76.60
2022-08-01T01:54:33.785Z,76.70
2022-08-01T01:57:01.262Z,76.70
2022-08-01T01:59:27.722Z,76.80
2022-08-01T02:02:06.174Z,76.80
2022-08-01T02:04:33.035Z,77.10
2022-08-01T02:06:59.506Z,77.20
2022-08-01T02:09:25.985Z,77.30
2022-08-01T02:12:07.605Z,77.40
2022-08-01T02:14:34.997Z,77.80
2022-08-01T02:17:01.477Z,78.00
2022-08-01T02:19:27.939Z,78.00
2022-08-01T02:21:54.418Z,78.00
2022-08-01T02:24:20.885Z,78.20
2022-08-01T02:26:57.094Z,78.30
2022-08-01T02:29:23.570Z,78.50
2022-08-01T02:31:50.044Z,78.60
2022-08-01T02:34:16.505Z,78.70
2022-08-01T02:36:42.978Z,78.80
2022-08-01T02:39:09.427Z,78.70
2022-08-01T02:41:35.905Z,78.70
2022-08-01T02:44:02.361Z,78.60
2022-08-01T02:46:28.854Z,78.50
2022-08-01T02:48:55.428Z,78.60
2022-08-01T02:51:21.931Z,78.50
2022-08-01T02:53:48.390Z,78.40
2022-08-01T02:56:14.893Z,78.30
2022-08-01T02:58:41.350Z,78.40
2022-08-01T03:01:08.389Z,78.40
2022-08-01T03:03:34.894Z,78.30
2022-08-01T03:06:01.368Z,78.10
2022-08-01T03:08:27.824Z,78.10
2022-08-01T03:10:54.312Z,78.00
2022-08-01T03:13:20.785Z,78.00
2022-08-01T03:15:47.254Z,78.00
2022-08-01T03:18:13.736Z,78.10
2022-08-01T03:20:40.299Z,78.10
2022-08-01T03:23:06.914Z,78.10
2022-08-01T03:25:33.382Z,78.20
2022-08-01T03:27:59.852Z,78.20
2022-08-01T03:30:26.310Z,78.20
2022-08-01T03:32:52.786Z,78.30
2022-08-01T03:35:19.246Z,78.30
2022-08-01T03:38:14.324Z,78.40
2022-08-01T03:40:32.172Z,78.60
2022-08-01T03:42:58.653Z,78.60
2022-08-01T03:45:25.120Z,78.60
2022-08-01T03:47:52.088Z,78.60
2022-08-01T03:50:18.587Z,78.70
2022-08-01T03:52:45.061Z,78.70
2022-08-01T03:55:11.525Z,78.70
2022-08-01T03:57:38.021Z,78.90
2022-08-01T04:00:04.474Z,79.00
2022-08-01T04:02:30.957Z,79.20
2022-08-01T04:04:57.453Z,79.20
2022-08-01T04:07:23.931Z,79.20
2022-08-01T04:09:50.391Z,79.00
2022-08-01T04:12:16.863Z,79.00
2022-08-01T04:14:43.321Z,78.90
2022-08-01T04:17:09.809Z,78.80
2022-08-01T04:19:36.271Z,78.90
2022-08-01T04:22:03.022Z,78.90
2022-08-01T04:24:29.701Z,78.80
2022-08-01T04:26:56.174Z,78.80
2022-08-01T04:29:22.653Z,78.80
2022-08-01T04:31:49.117Z,78.80
2022-08-01T04:34:15.594Z,78.70
2022-08-01T04:36:42.070Z,78.70
2022-08-01T04:39:08.550Z,78.70
2022-08-01T04:41:35.026Z,78.60
2022-08-01T04:44:01.507Z,78.60
2022-08-01T04:46:27.966Z,78.70
2022-08-01T04:48:54.463Z,78.70
2022-08-01T04:51:20.978Z,78.60
2022-08-01T04:53:47.454Z,78.60
2022-08-01T04:56:13.988Z,78.50
2022-08-01T04:58:40.574Z,78.50
2022-08-01T05:01:07.113Z,78.50
2022-08-01T05:03:38.401Z,78.40
2022-08-01T05:06:05.232Z,78.50
2022-08-01T05:08:31.705Z,78.60
2022-08-01T05:10:58.168Z,78.60
2022-08-01T05:13:24.642Z,78.60
2022-08-01T05:15:51.123Z,78.60
2022-08-01T05:18:17.599Z,78.50
2022-08-01T05:20:54.196Z,78.50
2022-08-01T05:23:31.012Z,78.40
2022-08-01T05:26:07.112Z,78.40
2022-08-01T05:28:33.581Z,78.20
2022-08-01T05:31:00.047Z,78.10
2022-08-01T05:33:26.516Z,78.10
2022-08-01T05:35:52.980Z,78.10
2022-08-01T05:38:19.448Z,78.10
2022-08-01T05:40:45.930Z,78.10
2022-08-01T05:43:12.400Z,78.10
2022-08-01T05:45:38.879Z,78.10
2022-08-01T05:48:05.340Z,78.10
2022-08-01T05:50:31.819Z,78.10
2022-08-01T05:52:58.278Z,78.00
2022-08-01T05:55:24.752Z,78.20
2022-08-01T05:57:51.211Z,78.30
2022-08-01T06:00:17.685Z,78.30
2022-08-01T06:02:44.203Z,78.20
2022-08-01T06:05:13.239Z,78.10
2022-08-01T06:07:40.035Z,78.00
2022-08-01T06:10:06.516Z,78.10
2022-08-01T06:12:35.590Z,78.00
2022-08-01T06:15:02.445Z,78.00
2022-08-01T06:17:28.926Z,78.00
2022-08-01T06:19:55.418Z,78.00
2022-08-01T06:22:21.914Z,77.90
2022-08-01T06:24:48.413Z,77.70
2022-08-01T06:27:21.621Z,77.70
2022-08-01T06:29:50.409Z,77.70
2022-08-01T06:32:27.511Z,77.60
2022-08-01T06:34:54.354Z,77.60
2022-08-01T06:37:20.825Z,77.50
2022-08-01T06:39:47.298Z,77.50
2022-08-01T06:42:13.760Z,77.40
2022-08-01T06:44:40.252Z,77.40
2022-08-01T06:47:06.716Z,77.30
2022-08-01T06:49:33.282Z,77.20
2022-08-01T06:51:59.815Z,77.20
2022-08-01T06:54:26.289Z,77.30
2022-08-01T06:56:52.745Z,77.30
2022-08-01T06:59:19.226Z,77.40
2022-08-01T07:01:45.696Z,77.60
2022-08-01T07:04:12.163Z,77.50
2022-08-01T07:06:38.648Z,77.60
2022-08-01T07:09:10.786Z,77.30
2022-08-01T07:11:40.194Z,77.20
2022-08-01T07:14:06.657Z,77.10
2022-08-01T07:16:33.137Z,77.10
2022-08-01T07:18:59.598Z,77.10
2022-08-01T07:21:38.611Z,77.10
2022-08-01T07:24:12.641Z,77.00
2022-08-01T07:26:40.483Z,77.00
2022-08-01T07:29:19.309Z,77.00
2022-08-01T07:31:45.773Z,77.20
2022-08-01T07:34:12.250Z,77.10
2022-08-01T07:36:38.726Z,77.00
2022-08-01T07:39:05.189Z,77.10
2022-08-01T07:41:54.640Z,77.00
2022-08-01T07:44:18.107Z,76.90
2022-08-01T07:46:44.581Z,76.90
2022-08-01T07:49:11.098Z,77.00
2022-08-01T07:51:37.630Z,76.90
2022-08-01T07:54:04.093Z,76.90
2022-08-01T07:56:30.570Z,77.10
2022-08-01T07:58:57.037Z,77.40
2022-08-01T08:01:23.564Z,77.20
2022-08-01T08:03:50.058Z,77.20
2022-08-01T08:06:16.542Z,77.00
2022-08-01T08:08:43.002Z,76.90
2022-08-01T08:11:09.481Z,76.80
2022-08-01T08:13:35.941Z,76.80
2022-08-01T08:16:02.416Z,76.70
2022-08-01T08:18:28.880Z,76.80
2022-08-01T08:20:55.372Z,76.80
2022-08-01T08:23:26.504Z,76.70
2022-08-01T08:26:08.290Z,76.40
2022-08-01T08:28:34.749Z,76.50
2022-08-01T08:31:01.227Z,76.30
2022-08-01T08:33:28.302Z,76.20
2022-08-01T08:35:54.783Z,76.10
2022-08-01T08:38:21.243Z,76.10
2022-08-01T08:40:55.050Z,76.30
2022-08-01T08:43:21.519Z,76.30
2022-08-01T08:45:58.209Z,76.30
2022-08-01T08:48:27.719Z,76.30
2022-08-01T08:50:54.451Z,76.10
2022-08-01T08:53:20.914Z,76.00
2022-08-01T08:55:55.640Z,75.80
2022-08-01T08:58:26.368Z,75.70
2022-08-01T09:00:58.006Z,75.50
2022-08-01T09:03:24.529Z,75.30
2022-08-01T09:05:51.037Z,75.00
2022-08-01T09:08:17.497Z,74.70
2022-08-01T09:10:43.974Z,74.70
2022-08-01T09:13:10.436Z,74.60
2022-08-01T09:15:36.897Z,74.50
2022-08-01T09:18:03.369Z,74.40
2022-08-01T09:20:29.826Z,74.40
2022-08-01T09:22:56.293Z,74.20
2022-08-01T09:25:22.752Z,74.00
2022-08-01T09:27:56.389Z,73.90
2022-08-01T09:30:23.835Z,73.90
2022-08-01T09:32:52.590Z,73.60
2022-08-01T09:35:19.060Z,73.60
2022-08-01T09:37:47.362Z,73.50
2022-08-01T09:40:14.933Z,73.40
2022-08-01T09:42:41.409Z,73.10
2022-08-01T09:45:07.878Z,73.00
2022-08-01T09:47:34.351Z,72.80
2022-08-01T09:50:10.488Z,72.70
2022-08-01T09:52:37.698Z,72.40
2022-08-01T09:55:07.860Z,72.30
2022-08-01T09:57:34.358Z,72.20
2022-08-01T10:00:02.995Z,71.90
2022-08-01T10:02:29.667Z,71.40
2022-08-01T10:05:03.167Z,71.20
2022-08-01T10:07:44.234Z,70.80
2022-08-01T10:10:11.487Z,69.60
2022-08-01T10:12:38.023Z,69.60
2022-08-01T10:15:10.956Z,69.70
2022-08-01T10:17:50.538Z,69.70
2022-08-01T10:20:29.024Z,69.70
2022-08-01T10:22:57.558Z,69.80
2022-08-01T10:25:42.509Z,69.60
2022-08-01T10:28:10.175Z,69.70
2022-08-01T10:30:37.143Z,69.40
2022-08-01T10:33:03.857Z,69.10
2022-08-01T10:35:47.333Z,68.80
2022-08-01T10:38:14.321Z,68.40
2022-08-01T10:40:40.787Z,68.30
2022-08-01T10:43:07.258Z,68.00
2022-08-01T10:45:33.739Z,67.80
2022-08-01T10:48:00.218Z,67.60
2022-08-01T10:50:29.582Z,67.30
2022-08-01T10:52:59.302Z,66.80
2022-08-01T10:55:25.979Z,65.80
2022-08-01T10:57:53.135Z,66.00
2022-08-01T11:00:19.747Z,66.10
2022-08-01T11:02:46.221Z,65.20
2022-08-01T11:05:14.294Z,64.40
2022-08-01T11:07:41.025Z,64.30
2022-08-01T11:10:10.231Z,64.30
2022-08-01T11:12:41.221Z,63.70
2022-08-01T11:15:10.577Z,63.60
2022-08-01T11:17:37.757Z,63.10
2022-08-01T11:20:04.894Z,61.70
2022-08-01T11:22:31.360Z,60.80
2022-08-01T11:24:57.859Z,61.20
2022-08-01T11:27:24.589Z,60.80
2022-08-01T11:29:53.060Z,60.40
2022-08-01T11:32:19.530Z,59.90
2022-08-01T11:34:46.006Z,59.30
2022-08-01T11:37:12.699Z,59.10
2022-08-01T11:39:41.357Z,58.40
2022-08-01T11:42:07.834Z,57.10
2022-08-01T11:44:34.284Z,57.20
2022-08-01T11:47:00.766Z,55.40
2022-08-01T11:49:29.309Z,55.30
2022-08-01T11:51:56.058Z,55.70
2022-08-01T11:54:35.230Z,55.90
2022-08-01T11:57:02.496Z,55.90
2022-08-01T11:59:34.018Z,55.80
2022-08-01T12:02:05.026Z,55.90
2022-08-01T12:04:31.505Z,55.60
2022-08-01T12:06:57.995Z,54.70
2022-08-01T12:09:24.469Z,55.10
2022-08-01T12:11:50.949Z,54.90
2022-08-01T12:14:17.412Z,55.00
2022-08-01T12:16:43.881Z,54.80
2022-08-01T12:19:11.629Z,54.80
2022-08-01T12:21:38.343Z,54.40
2022-08-01T12:24:04.825Z,53.50
2022-08-01T12:26:32.273Z,53.30
2022-08-01T12:28:58.904Z,53.70
2022-08-01T12:31:25.396Z,53.00
2022-08-01T12:33:51.865Z,53.50
2022-08-01T12:36:18.324Z,53.90
2022-08-01T12:38:44.802Z,53.90
2022-08-01T12:41:11.261Z,54.10
2022-08-01T12:43:37.742Z,53.30
2022-08-01T12:46:04.204Z,52.30
2022-08-01T12:48:30.682Z,52.80
2022-08-01T12:50:57.157Z,53.10
2022-08-01T12:53:23.625Z,53.30
2022-08-01T12:55:58.003Z,52.80
2022-08-01T12:58:26.209Z,51.00
2022-08-01T13:00:52.748Z,49.90
2022-08-01T13:03:19.308Z,49.00
2022-08-01T13:05:45.776Z,49.00
2022-08-01T13:08:12.258Z,49.50
2022-08-01T13:10:38.732Z,49.20
2022-08-01T13:13:05.227Z,49.50
2022-08-01T13:15:31.676Z,48.80
2022-08-01T13:17:58.161Z,49.20
2022-08-01T13:20:24.633Z,49.20
2022-08-01T13:22:51.108Z,47.80
2022-08-01T13:25:19.795Z,47.70
2022-08-01T13:27:53.674Z,47.30
2022-08-01T13:30:20.567Z,48.00
2022-08-01T13:32:47.054Z,48.20
2022-08-01T13:35:13.524Z,48.70
2022-08-01T13:37:39.993Z,49.00
2022-08-01T13:40:06.537Z,48.90
2022-08-01T13:42:33.058Z,49.30
2022-08-01T13:44:59.533Z,49.30
2022-08-01T13:47:31.135Z,48.70
2022-08-01T13:49:58.353Z,48.40
2022-08-01T13:52:24.836Z,48.40
2022-08-01T13:54:51.310Z,47.50
2022-08-01T13:57:17.775Z,47.40
2022-08-01T13:59:44.248Z,46.50
2022-08-01T14:02:10.809Z,46.20
2022-08-01T14:04:37.375Z,46.00
2022-08-01T14:07:10.756Z,46.20
2022-08-01T14:09:57.682Z,45.60
2022-08-01T14:12:27.214Z,45.30
2022-08-01T14:14:53.696Z,45.50
2022-08-01T14:17:20.165Z,45.50
2022-08-01T14:19:46.646Z,44.90
2022-08-01T14:22:13.112Z,44.70
2022-08-01T14:24:39.595Z,44.60
2022-08-01T14:27:07.509Z,45.00
2022-08-01T14:30:01.183Z,44.90
2022-08-01T14:32:22.346Z,45.20
2022-08-01T14:34:55.123Z,45.10
2022-08-01T14:37:21.580Z,44.50
2022-08-01T14:39:54.494Z,43.60
2022-08-01T14:42:21.196Z,43.80
2022-08-01T14:44:50.046Z,43.20
2022-08-01T14:47:21.415Z,42.90
2022-08-01T14:49:48.940Z,42.90
2022-08-01T14:52:15.446Z,42.90
2022-08-01T14:54:41.918Z,42.90
2022-08-01T14:57:08.373Z,43.00
2022-08-01T14:59:34.844Z,43.00
2022-08-01T15:02:01.307Z,43.00
2022-08-01T15:04:27.780Z,42.80
2022-08-01T15:06:54.238Z,42.70
2022-08-01T15:09:20.706Z,42.50
2022-08-01T15:11:47.174Z,43.10
2022-08-01T15:14:13.639Z,43.30
2022-08-01T15:16:40.107Z,43.20
2022-08-01T15:19:06.568Z,42.90
2022-08-01T15:21:42.039Z,42.30
2022-08-01T15:24:08.776Z,42.90
2022-08-01T15:26:35.259Z,41.50
2022-08-01T15:29:01.723Z,41.80
2022-08-01T15:31:28.196Z,41.90
2022-08-01T15:33:54.654Z,41.50
2022-08-01T15:36:25.800Z,40.70
2022-08-01T15:38:52.991Z,40.70
2022-08-01T15:41:19.523Z,41.10
2022-08-01T15:43:46.046Z,40.80
2022-08-01T15:46:22.210Z,41.20
2022-08-01T15:48:48.734Z,41.40
2022-08-01T15:51:15.289Z,41.30
2022-08-01T15:53:41.746Z,40.50
2022-08-01T15:56:08.216Z,40.50
2022-08-01T15:58:34.689Z,39.60
2022-08-01T16:01:01.181Z,39.40
2022-08-01T16:03:27.633Z,39.20
2022-08-01T16:05:54.121Z,38.80
2022-08-01T16:08:20.582Z,38.40
2022-08-01T16:10:47.056Z,38.80
2022-08-01T16:13:13.517Z,38.90
2022-08-01T16:15:40.002Z,38.90
2022-08-01T16:18:06.476Z,39.20
2022-08-01T16:20:32.993Z,39.60
2022-08-01T16:22:59.473Z,39.10
2022-08-01T16:25:25.939Z,39.20
2022-08-01T16:27:52.414Z,39.00
2022-08-01T16:30:18.875Z,38.90
2022-08-01T16:32:51.568Z,39.10
2022-08-01T16:35:24.565Z,39.10
2022-08-01T16:38:03.028Z,37.40
2022-08-01T16:40:29.486Z,38.10
2022-08-01T16:42:55.969Z,38.40
2022-08-01T16:45:25.066Z,38.40
2022-08-01T16:47:51.534Z,38.80
2022-08-01T16:50:17.994Z,38.80
2022-08-01T16:52:54.372Z,37.80
2022-08-01T16:55:22.440Z,37.90
2022-08-01T16:57:48.917Z,37.90
2022-08-01T17:00:20.967Z,38.10
2022-08-01T17:02:48.085Z,38.10
2022-08-01T17:05:14.647Z,38.30
2022-08-01T17:07:41.132Z,38.20
2022-08-01T17:10:07.597Z,38.40
2022-08-01T17:12:34.069Z,38.40
2022-08-01T17:15:00.527Z,38.60
2022-08-01T17:17:27.001Z,38.20
2022-08-01T17:19:53.504Z,38.40
2022-08-01T17:22:20.012Z,38.70
2022-08-01T17:24:46.480Z,38.90
2022-08-01T17:27:13.812Z,39.20
2022-08-01T17:29:43.904Z,39.30
2022-08-01T17:32:10.932Z,39.80
2022-08-01T17:34:37.384Z,39.90
2022-08-01T17:37:04.181Z,40.00
2022-08-01T17:39:39.353Z,40.20
2022-08-01T17:42:06.328Z,40.40
2022-08-01T17:44:32.801Z,40.50
2022-08-01T17:46:59.269Z,40.80
2022-08-01T17:49:52.145Z,41.10
2022-08-01T17:52:12.188Z,41.30
2022-08-01T17:54:38.789Z,41.40
2022-08-01T17:57:08.257Z,41.60
2022-08-01T17:59:35.115Z,41.60
2022-08-01T18:02:01.631Z,41.50
2022-08-01T18:04:30.982Z,41.70
2022-08-01T18:07:00.531Z,41.90
2022-08-01T18:09:27.010Z,42.00
2022-08-01T18:11:53.474Z,42.20
2022-08-01T18:14:19.949Z,42.20
2022-08-01T18:16:46.428Z,41.70
2022-08-01T18:19:12.941Z,41.60
2022-08-01T18:21:42.833Z,41.80
2022-08-01T18:24:09.667Z,42.30
2022-08-01T18:26:36.132Z,42.50
2022-08-01T18:29:02.613Z,42.80
2022-08-01T18:31:29.076Z,42.90
2022-08-01T18:33:55.551Z,43.00
2022-08-01T18:36:32.396Z,43.10
2022-08-01T18:39:00.282Z,43.10
2022-08-01T18:41:28.273Z,43.20
2022-08-01T18:44:05.475Z,43.30
2022-08-01T18:46:35.000Z,43.60
2022-08-01T18:49:01.542Z,43.90
2022-08-01T18:51:28.048Z,44.10
2022-08-01T18:53:54.517Z,44.20
2022-08-01T18:56:20.991Z,44.40
2022-08-01T18:58:47.462Z,44.70
2022-08-01T19:01:13.987Z,44.90
2022-08-01T19:03:42.721Z,45.30
2022-08-01T19:06:09.446Z,45.60
2022-08-01T19:08:35.904Z,45.80
2022-08-01T19:11:02.372Z,46.10
2022-08-01T19:13:28.838Z,46.40
2022-08-01T19:15:55.313Z,46.50
2022-08-01T19:18:21.781Z,46.60
2022-08-01T19:20:48.270Z,46.90
2022-08-01T19:23:14.734Z,47.00
2022-08-01T19:25:43.944Z,47.20
2022-08-01T19:28:22.179Z,47.30
2022-08-01T19:30:53.711Z,47.40
2022-08-01T19:33:20.253Z,47.60
2022-08-01T19:35:46.723Z,48.30
2022-08-01T19:38:13.192Z,47.70
2022-08-01T19:40:39.694Z,47.90
2022-08-01T19:43:06.144Z,48.00
2022-08-01T19:45:32.617Z,48.40
2022-08-01T19:47:59.084Z,48.50
2022-08-01T19:50:25.532Z,48.70
2022-08-01T19:52:52.030Z,48.80
2022-08-01T19:55:18.502Z,48.80
2022-08-01T19:57:47.477Z,48.90
2022-08-01T20:00:24.047Z,48.90
2022-08-01T20:02:54.833Z,49.00
2022-08-01T20:05:21.305Z,49.20
2022-08-01T20:07:47.767Z,49.30
2022-08-01T20:10:14.230Z,49.40
2022-08-01T20:12:40.710Z,49.50
2022-08-01T20:15:07.165Z,49.70
2022-08-01T20:17:33.629Z,49.80
2022-08-01T20:20:00.100Z,50.40
2022-08-01T20:22:26.568Z,50.80
2022-08-01T20:24:53.026Z,51.10
2022-08-01T20:27:19.505Z,51.20
2022-08-01T20:29:45.953Z,51.10
2022-08-01T20:32:12.446Z,51.30
2022-08-01T20:34:38.944Z,51.50
2022-08-01T20:37:06.917Z,51.40
2022-08-01T20:39:33.466Z,51.50
2022-08-01T20:42:00.586Z,51.70
2022-08-01T20:44:27.108Z,51.80
2022-08-01T20:46:53.587Z,51.80
2022-08-01T20:49:20.102Z,51.90
2022-08-01T20:51:46.631Z,51.90
2022-08-01T20:54:13.093Z,52.10
2022-08-01T20:56:39.592Z,52.20
2022-08-01T20:59:06.059Z,52.30
2022-08-01T21:01:32.517Z,52.40
2022-08-01T21:03:59.000Z,52.50
2022-08-01T21:06:25.454Z,52.50
2022-08-01T21:08:51.929Z,52.60
2022-08-01T21:11:18.401Z,52.80
2022-08-01T21:13:44.867Z,52.70
2022-08-01T21:16:23.232Z,52.80
2022-08-01T21:19:16.904Z,53.00
2022-08-01T21:21:37.827Z,53.00
2022-08-01T21:24:04.312Z,53.10
2022-08-01T21:26:30.777Z,53.80
2022-08-01T21:29:00.594Z,53.30
2022-08-01T21:31:28.681Z,53.60
2022-08-01T21:34:07.613Z,53.40
2022-08-01T21:36:34.079Z,53.50
2022-08-01T21:39:00.554Z,53.60
2022-08-01T21:42:05.418Z,53.60
2022-08-01T21:44:13.469Z,53.60
2022-08-01T21:46:39.931Z,53.90
2022-08-01T21:49:06.455Z,54.10
2022-08-01T21:51:32.938Z,54.30
2022-08-01T21:54:02.833Z,54.30
2022-08-01T21:56:31.865Z,54.30
2022-08-01T21:58:58.385Z,54.40
2022-08-01T22:01:24.883Z,54.50
2022-08-01T22:03:51.377Z,54.40
2022-08-01T22:06:17.854Z,54.60
2022-08-01T22:08:44.317Z,54.60
2022-08-01T22:11:10.792Z,54.80
2022-08-01T22:13:37.253Z,54.80
2022-08-01T22:16:03.734Z,54.90
2022-08-01T22:18:30.199Z,54.90
2022-08-01T22:20:56.662Z,55.00
2022-08-01T22:23:23.126Z,55.10
2022-08-01T22:25:49.582Z,55.30
2022-08-01T22:28:16.058Z,55.40
2022-08-01T22:30:42.531Z,55.40
2022-08-01T22:33:15.996Z,55.50
2022-08-01T22:35:43.313Z,55.50
2022-08-01T22:38:10.054Z,55.50
2022-08-01T22:40:36.572Z,55.60
2022-08-01T22:43:03.051Z,55.50
2022-08-01T22:45:29.510Z,55.70
2022-08-01T22:47:55.989Z,55.90
2022-08-01T22:50:34.426Z,56.00
2022-08-01T22:53:03.266Z,56.30
2022-08-01T22:55:58.276Z,56.40
2022-08-01T22:58:18.890Z,56.50
2022-08-01T23:00:45.346Z,56.60
2022-08-01T23:03:11.831Z,57.10
2022-08-01T23:05:38.289Z,57.50
2022-08-01T23:08:04.761Z,57.70
2022-08-01T23:10:31.230Z,57.70
2022-08-01T23:12:57.708Z,57.70
2022-08-01T23:15:24.177Z,57.60
2022-08-01T23:17:50.641Z,57.60
2022-08-01T23:20:17.124Z,57.60
2022-08-01T23:22:43.590Z,57.40
2022-08-01T23:25:10.061Z,57.40
2022-08-01T23:27:54.228Z,57.50
2022-08-01T23:30:22.965Z,57.60
2022-08-01T23:32:49.430Z,57.80
2022-08-01T23:35:15.914Z,57.80
2022-08-01T23:37:42.374Z,57.90
2022-08-01T23:40:08.847Z,58.00
2022-08-01T23:42:35.319Z,58.00
2022-08-01T23:45:01.810Z,57.80
2022-08-01T23:47:28.267Z,57.90
2022-08-01T23:49:54.785Z,57.80
2022-08-01T23:52:21.726Z,58.00
2022-08-01T23:54:48.257Z,58.10
2022-08-01T23:57:16.334Z,58.00
2022-08-01T23:59:53.147Z,58.00
